JA46EB RJFK-RJFK

Flight info

Callsign JA46EB
Flight time 0h 27m
Altitude 2000
Route VFR TGL
Aircraft C172/L-SFG/LB1

Departure

Time 2026-05-08 12:44
Airport Kagoshima Airport (RJFK)

Arrival

Time 2026-05-08 13:11
Airport Kagoshima Airport (RJFK)
Time Latitude Longitude Altitude Speed Heading
2026-05-08 12:00 31.79634 130.72053 886 ft 0 kts 331°
2026-05-08 12:10 31.79633 130.72053 885 ft 0 kts 331°
2026-05-08 12:15 31.79633 130.72054 885 ft 0 kts 331°
2026-05-08 12:27 31.79632 130.72054 885 ft 0 kts 331°
2026-05-08 12:38 31.79640 130.72061 886 ft 3 kts 108°
2026-05-08 12:38 31.79631 130.72099 885 ft 7 kts 56°
2026-05-08 12:38 31.79660 130.72163 885 ft 9 kts 95°
2026-05-08 12:39 31.79606 130.72208 884 ft 13 kts 150°
2026-05-08 12:39 31.79521 130.72266 882 ft 10 kts 150°
2026-05-08 12:39 31.79490 130.72341 881 ft 9 kts 76°
2026-05-08 12:39 31.79507 130.72382 881 ft 1 kts 60°
2026-05-08 12:42 31.79514 130.72396 881 ft 6 kts 61°
2026-05-08 12:42 31.79554 130.72456 882 ft 10 kts 15°
2026-05-08 12:42 31.79607 130.72432 883 ft 11 kts 330°
2026-05-08 12:43 31.79814 130.72293 886 ft 58 kts 330°
2026-05-08 12:43 31.80257 130.71996 953 ft 82 kts 330°
2026-05-08 12:43 31.80759 130.71662 1174 ft 83 kts 328°
2026-05-08 12:43 31.81261 130.71322 1390 ft 83 kts 330°
2026-05-08 12:44 31.81746 130.70978 1578 ft 82 kts 328°
2026-05-08 12:44 31.82226 130.70639 1724 ft 79 kts 329°
2026-05-08 12:44 31.82723 130.70300 1817 ft 86 kts 324°
2026-05-08 12:44 31.82918 130.69640 1844 ft 98 kts 268°
2026-05-08 12:45 31.82590 130.68907 1796 ft 104 kts 246°
2026-05-08 12:45 31.82230 130.68177 1739 ft 104 kts 248°
2026-05-08 12:45 31.81734 130.67559 1815 ft 108 kts 216°
2026-05-08 12:45 31.80961 130.67599 1799 ft 121 kts 153°
2026-05-08 12:46 31.80253 130.68125 1772 ft 122 kts 148°
2026-05-08 12:46 31.79554 130.68699 1751 ft 123 kts 149°
2026-05-08 12:46 31.78805 130.69205 1766 ft 125 kts 153°
2026-05-08 12:46 31.78046 130.69724 1706 ft 126 kts 146°
2026-05-08 12:47 31.77305 130.70268 1716 ft 127 kts 152°
2026-05-08 12:47 31.76529 130.70758 1722 ft 125 kts 150°
2026-05-08 12:47 31.75811 130.71296 1751 ft 122 kts 148°
2026-05-08 12:47 31.75115 130.71792 1611 ft 110 kts 151°
2026-05-08 12:48 31.74473 130.72239 1477 ft 104 kts 151°
2026-05-08 12:48 31.73960 130.72824 1356 ft 102 kts 102°
2026-05-08 12:48 31.74046 130.73569 1282 ft 90 kts 53°
2026-05-08 12:48 31.74312 130.74217 1294 ft 87 kts 56°
2026-05-08 12:49 31.74569 130.74857 1305 ft 84 kts 52°
2026-05-08 12:49 31.74867 130.75413 1301 ft 77 kts 27°
2026-05-08 12:49 31.75311 130.75327 1209 ft 73 kts 327°
2026-05-08 12:49 31.75750 130.75036 1182 ft 72 kts 330°
2026-05-08 12:50 31.76187 130.74759 1147 ft 71 kts 330°
2026-05-08 12:50 31.76613 130.74471 1183 ft 71 kts 327°
2026-05-08 12:50 31.77036 130.74170 1154 ft 72 kts 327°
2026-05-08 12:50 31.77458 130.73875 1142 ft 68 kts 333°
2026-05-08 12:51 31.77880 130.73608 1072 ft 70 kts 329°
2026-05-08 12:51 31.78701 130.73045 1003 ft 68 kts 327°
2026-05-08 12:51 31.79111 130.72762 931 ft 68 kts 329°
2026-05-08 12:52 31.79506 130.72499 883 ft 58 kts 331°
2026-05-08 12:52 31.80275 130.71987 1053 ft 74 kts 330°
2026-05-08 12:52 31.80727 130.71684 1271 ft 77 kts 328°
2026-05-08 12:53 31.81186 130.71368 1500 ft 77 kts 327°
2026-05-08 12:53 31.81631 130.71025 1697 ft 78 kts 328°
2026-05-08 12:53 31.82102 130.70672 1803 ft 81 kts 321°
2026-05-08 12:53 31.82216 130.70013 1794 ft 100 kts 258°
2026-05-08 12:54 31.81786 130.69333 1826 ft 106 kts 240°
2026-05-08 12:54 31.81325 130.68660 1750 ft 104 kts 242°
2026-05-08 12:54 31.80875 130.68050 1777 ft 98 kts 226°
2026-05-08 12:54 31.80201 130.67966 1782 ft 107 kts 159°
2026-05-08 12:55 31.79535 130.68438 1645 ft 117 kts 152°
2026-05-08 12:55 31.78806 130.68865 1650 ft 116 kts 155°
2026-05-08 12:55 31.78131 130.69354 1631 ft 114 kts 142°
2026-05-08 12:55 31.77485 130.69917 1592 ft 118 kts 146°
2026-05-08 12:56 31.76802 130.70439 1554 ft 115 kts 149°
2026-05-08 12:56 31.76154 130.70938 1610 ft 106 kts 146°
2026-05-08 12:56 31.75558 130.71413 1651 ft 105 kts 147°
2026-05-08 12:56 31.74937 130.71893 1578 ft 110 kts 147°
2026-05-08 12:57 31.74247 130.72135 1477 ft 103 kts 202°
2026-05-08 12:57 31.73776 130.71648 1455 ft 86 kts 266°
2026-05-08 12:57 31.73956 130.71088 1475 ft 76 kts 329°
2026-05-08 12:57 31.74472 130.71156 1462 ft 87 kts 32°
2026-05-08 12:58 31.74803 130.71826 1298 ft 96 kts 56°
2026-05-08 12:58 31.75043 130.72524 1181 ft 86 kts 54°
2026-05-08 12:58 31.75249 130.73165 1276 ft 81 kts 56°
2026-05-08 12:58 31.75477 130.73782 1317 ft 81 kts 54°
2026-05-08 12:59 31.75716 130.74387 1345 ft 84 kts 54°
2026-05-08 12:59 31.76068 130.74887 1350 ft 73 kts 11°
2026-05-08 12:59 31.76495 130.74615 1318 ft 80 kts 320°
2026-05-08 12:59 31.76963 130.74235 1327 ft 84 kts 328°
2026-05-08 13:00 31.77447 130.73892 1322 ft 79 kts 332°
2026-05-08 13:00 31.77922 130.73615 1204 ft 73 kts 327°
2026-05-08 13:00 31.78340 130.73294 1094 ft 71 kts 329°
2026-05-08 13:00 31.78768 130.72998 1002 ft 72 kts 329°
2026-05-08 13:01 31.79210 130.72698 909 ft 74 kts 329°
2026-05-08 13:01 31.79625 130.72422 883 ft 56 kts 329°
2026-05-08 13:01 31.79958 130.72194 889 ft 69 kts 330°
2026-05-08 13:01 31.80441 130.71870 999 ft 85 kts 329°
2026-05-08 13:02 31.80955 130.71521 1187 ft 88 kts 330°
2026-05-08 13:02 31.81493 130.71157 1369 ft 87 kts 329°
2026-05-08 13:02 31.81996 130.70808 1620 ft 83 kts 330°
2026-05-08 13:02 31.82504 130.70487 1831 ft 86 kts 337°
2026-05-08 13:03 31.83108 130.70690 1929 ft 102 kts 33°
2026-05-08 13:03 31.83442 130.71457 2001 ft 112 kts 63°
2026-05-08 13:03 31.83697 130.72317 2002 ft 107 kts 57°
2026-05-08 13:03 31.84023 130.73097 2009 ft 107 kts 54°
2026-05-08 13:04 31.84323 130.73885 2023 ft 110 kts 73°
2026-05-08 13:04 31.84142 130.74789 1927 ft 125 kts 124°
2026-05-08 13:04 31.83397 130.75290 1813 ft 127 kts 171°
2026-05-08 13:04 31.82592 130.75711 1733 ft 127 kts 153°
2026-05-08 13:05 31.81818 130.76202 1653 ft 126 kts 152°
2026-05-08 13:05 31.81072 130.76698 1634 ft 121 kts 152°
2026-05-08 13:05 31.80364 130.77192 1648 ft 117 kts 148°
2026-05-08 13:05 31.79697 130.77704 1525 ft 114 kts 147°
2026-05-08 13:06 31.79031 130.78144 1481 ft 108 kts 154°
2026-05-08 13:06 31.78395 130.78592 1454 ft 104 kts 151°
2026-05-08 13:06 31.77753 130.78837 1431 ft 95 kts 199°
2026-05-08 13:06 31.77265 130.78430 1396 ft 87 kts 242°
2026-05-08 13:07 31.76891 130.77885 1378 ft 86 kts 242°
2026-05-08 13:07 31.76514 130.77333 1348 ft 86 kts 243°
2026-05-08 13:07 31.76157 130.76771 1309 ft 86 kts 245°
2026-05-08 13:07 31.75811 130.76202 1177 ft 88 kts 249°
2026-05-08 13:08 31.75517 130.75579 1113 ft 83 kts 261°
2026-05-08 13:08 31.75646 130.75083 1152 ft 66 kts 324°
2026-05-08 13:08 31.76029 130.74836 1095 ft 61 kts 329°
2026-05-08 13:08 31.76386 130.74595 1109 ft 57 kts 334°
2026-05-08 13:09 31.76728 130.74387 1099 ft 57 kts 327°
2026-05-08 13:09 31.77072 130.74163 1072 ft 56 kts 329°
2026-05-08 13:09 31.77424 130.73928 1078 ft 58 kts 328°
2026-05-08 13:09 31.77770 130.73680 1036 ft 59 kts 329°
2026-05-08 13:10 31.78130 130.73446 1025 ft 58 kts 326°
2026-05-08 13:10 31.78474 130.73208 1002 ft 58 kts 332°
2026-05-08 13:10 31.78824 130.72974 989 ft 59 kts 327°
2026-05-08 13:10 31.79203 130.72704 906 ft 66 kts 329°
2026-05-08 13:11 31.79547 130.72472 882 ft 45 kts 331°
2026-05-08 13:11 31.79922 130.72219 892 ft 79 kts 329°
2026-05-08 13:11 31.80405 130.71888 1080 ft 84 kts 329°
2026-05-08 13:11 31.80918 130.71553 1282 ft 86 kts 329°
2026-05-08 13:12 31.81437 130.71191 1484 ft 85 kts 328°
2026-05-08 13:12 31.81934 130.70827 1708 ft 83 kts 329°
2026-05-08 13:12 31.82438 130.70490 1813 ft 86 kts 337°
2026-05-08 13:12 31.83002 130.70673 1879 ft 99 kts 37°
2026-05-08 13:13 31.83336 130.71451 1862 ft 104 kts 60°
2026-05-08 13:13 31.83589 130.72225 1896 ft 99 kts 62°
2026-05-08 13:13 31.83843 130.72963 1843 ft 99 kts 56°
2026-05-08 13:13 31.83944 130.73774 1826 ft 111 kts 100°
2026-05-08 13:14 31.83424 130.74461 1718 ft 119 kts 149°
2026-05-08 13:14 31.82732 130.74945 1722 ft 114 kts 154°
2026-05-08 13:14 31.82059 130.75397 1719 ft 112 kts 153°
2026-05-08 13:14 31.81368 130.75826 1730 ft 109 kts 155°
2026-05-08 13:15 31.80711 130.76282 1761 ft 111 kts 149°
2026-05-08 13:15 31.80054 130.76755 1746 ft 111 kts 152°
2026-05-08 13:15 31.79370 130.77163 1608 ft 113 kts 154°
2026-05-08 13:15 31.78710 130.77605 1572 ft 101 kts 150°
2026-05-08 13:16 31.78109 130.77999 1534 ft 99 kts 154°
2026-05-08 13:16 31.77505 130.78268 1523 ft 88 kts 197°
2026-05-08 13:16 31.77068 130.77906 1511 ft 80 kts 242°
2026-05-08 13:16 31.76711 130.77402 1570 ft 80 kts 242°
2026-05-08 13:17 31.76352 130.76883 1607 ft 84 kts 243°
2026-05-08 13:17 31.76013 130.76337 1623 ft 81 kts 248°
2026-05-08 13:17 31.75684 130.75827 1671 ft 76 kts 242°
2026-05-08 13:17 31.75476 130.75321 1638 ft 62 kts 301°
2026-05-08 13:18 31.75825 130.75007 1553 ft 67 kts 327°
2026-05-08 13:18 31.76224 130.74706 1451 ft 69 kts 328°
2026-05-08 13:18 31.76624 130.74448 1442 ft 66 kts 334°
2026-05-08 13:18 31.77019 130.74179 1343 ft 65 kts 327°
2026-05-08 13:19 31.77412 130.73912 1301 ft 64 kts 328°
2026-05-08 13:19 31.77812 130.73651 1211 ft 66 kts 327°
2026-05-08 13:19 31.78214 130.73371 1134 ft 69 kts 331°
2026-05-08 13:19 31.78638 130.73087 1032 ft 71 kts 329°
2026-05-08 13:20 31.79067 130.72795 934 ft 72 kts 330°
2026-05-08 13:20 31.79465 130.72529 880 ft 53 kts 329°
2026-05-08 13:20 31.79719 130.72354 884 ft 36 kts 331°
2026-05-08 13:20 31.79904 130.72232 888 ft 26 kts 330°
2026-05-08 13:21 31.80024 130.72133 890 ft 17 kts 287°
2026-05-08 13:21 31.79999 130.72034 891 ft 9 kts 240°
2026-05-08 13:21 31.79959 130.71988 891 ft 9 kts 189°
2026-05-08 13:21 31.79884 130.72020 889 ft 15 kts 150°
2026-05-08 13:22 31.79783 130.72089 887 ft 10 kts 149°
2026-05-08 13:22 31.79720 130.72131 886 ft 13 kts 151°
2026-05-08 13:22 31.79667 130.72165 885 ft 3 kts 187°
2026-05-08 13:22 31.79650 130.72138 885 ft 5 kts 240°
2026-05-08 13:23 31.79631 130.72097 885 ft 6 kts 239°
2026-05-08 13:23 31.79617 130.72068 885 ft 2 kts 261°
2026-05-08 13:23 31.79626 130.72058 885 ft 3 kts 331°
2026-05-08 13:23 31.79634 130.72053 886 ft 0 kts 332°
2026-05-08 14:02 31.79633 130.72053 886 ft 0 kts 332°
2026-05-08 14:04 31.79633 130.72054 885 ft 0 kts 332°